createdAt,value
2016-11-04T00:00:43.589Z,17.11
2016-11-04T00:01:55.440Z,17.08
2016-11-04T00:03:06.479Z,17.11
2016-11-04T00:04:17.908Z,17.1
2016-11-04T00:05:28.565Z,17.13
2016-11-04T00:06:39.621Z,17.07
2016-11-04T00:07:51.228Z,17.13
2016-11-04T00:09:01.836Z,17.17
2016-11-04T00:10:13.867Z,17.1
2016-11-04T00:11:25.342Z,17.07
2016-11-04T00:12:35.929Z,17.11
2016-11-04T00:13:47.044Z,17.06
2016-11-04T00:14:58.093Z,17.11
2016-11-04T00:16:08.727Z,17.06
2016-11-04T00:17:20.150Z,17.08
2016-11-04T00:18:31.607Z,17.06
2016-11-04T00:19:43.131Z,17.1
2016-11-04T00:20:54.195Z,17.11
2016-11-04T00:22:05.265Z,17.08
2016-11-04T00:23:16.700Z,17.08
2016-11-04T00:24:28.530Z,17.08
2016-11-04T00:25:39.571Z,17.08
2016-11-04T00:26:51.022Z,17.03
2016-11-04T00:28:01.674Z,17.11
2016-11-04T00:29:12.714Z,17.06
2016-11-04T00:30:24.828Z,17.08
2016-11-04T00:31:37.063Z,17.06
2016-11-04T00:32:48.087Z,17.06
2016-11-04T00:33:59.184Z,16.98
2016-11-04T00:35:09.849Z,17.07
2016-11-04T00:36:21.301Z,16.98
2016-11-04T00:37:32.087Z,16.99
2016-11-04T00:38:43.168Z,17.03
2016-11-04T00:39:54.183Z,17.08
2016-11-04T00:41:05.191Z,17.1
2016-11-04T00:42:15.835Z,17.07
2016-11-04T00:43:30.432Z,17.06
2016-11-04T00:44:41.437Z,17
2016-11-04T00:45:52.830Z,17.07
2016-11-04T00:47:04.270Z,17.03
2016-11-04T00:48:14.929Z,17.04
2016-11-04T00:49:26.395Z,17.08
2016-11-04T00:50:38.163Z,17.03
2016-11-04T00:51:48.821Z,17.04
2016-11-04T00:53:01.039Z,17.03
2016-11-04T00:54:13.514Z,17
2016-11-04T00:55:25.025Z,16.88
2016-11-04T00:56:36.497Z,16.9
2016-11-04T00:57:47.572Z,16.92
2016-11-04T00:58:58.585Z,16.92
2016-11-04T01:00:09.627Z,16.83
2016-11-04T01:01:22.077Z,16.89
2016-11-04T01:02:32.734Z,16.98
2016-11-04T01:03:44.300Z,16.83
2016-11-04T01:04:55.724Z,16.89
2016-11-04T01:06:07.572Z,16.86
2016-11-04T01:07:19.035Z,16.88
2016-11-04T01:08:29.719Z,16.9
2016-11-04T01:09:41.160Z,17.03
2016-11-04T01:10:52.162Z,16.9
2016-11-04T01:12:03.196Z,16.96
2016-11-04T01:13:13.972Z,16.9
2016-11-04T01:14:25.848Z,16.93
2016-11-04T01:15:36.912Z,16.93
2016-11-04T01:16:49.266Z,16.89
2016-11-04T01:17:59.939Z,16.89
2016-11-04T01:19:11.127Z,16.86
2016-11-04T01:20:22.555Z,16.81
2016-11-04T01:21:33.636Z,16.93
2016-11-04T01:22:45.466Z,16.88
2016-11-04T01:23:56.529Z,16.92
2016-11-04T01:25:07.503Z,16.92
2016-11-04T01:26:18.531Z,16.88
2016-11-04T01:27:30.000Z,16.95
2016-11-04T01:28:41.069Z,16.98
2016-11-04T01:29:52.124Z,16.93
2016-11-04T01:31:04.191Z,16.93
2016-11-04T01:32:14.850Z,16.92
2016-11-04T01:33:25.483Z,16.9
2016-11-04T01:34:36.549Z,16.89
2016-11-04T01:35:47.999Z,16.96
2016-11-04T01:36:58.777Z,16.96
2016-11-04T01:38:09.859Z,16.93
2016-11-04T01:39:24.376Z,16.88
2016-11-04T01:40:35.379Z,16.92
2016-11-04T01:41:46.385Z,16.81
2016-11-04T01:42:58.342Z,16.89
2016-11-04T01:44:08.973Z,16.92
2016-11-04T01:45:20.401Z,16.89
2016-11-04T01:46:31.440Z,16.81
2016-11-04T01:47:42.139Z,16.88
2016-11-04T01:48:52.845Z,16.93
2016-11-04T01:50:04.351Z,16.9
2016-11-04T01:51:15.399Z,16.9
2016-11-04T01:52:26.454Z,16.92
2016-11-04T01:53:37.144Z,16.93
2016-11-04T01:54:48.370Z,16.92
2016-11-04T01:55:59.850Z,16.9
2016-11-04T01:57:10.947Z,16.89
2016-11-04T01:58:22.005Z,16.95
2016-11-04T01:59:33.811Z,16.92
2016-11-04T02:00:45.314Z,16.92
2016-11-04T02:01:56.785Z,16.96
2016-11-04T02:03:08.659Z,16.92
2016-11-04T02:04:20.492Z,16.92
2016-11-04T02:05:31.223Z,16.98
2016-11-04T02:06:43.081Z,16.9
2016-11-04T02:07:54.478Z,16.93
2016-11-04T02:09:05.910Z,16.85
2016-11-04T02:10:16.589Z,16.89
2016-11-04T02:11:27.996Z,16.86
2016-11-04T02:12:39.222Z,16.93
2016-11-04T02:13:50.662Z,16.9
2016-11-04T02:15:02.118Z,16.92
2016-11-04T02:16:13.176Z,16.98
2016-11-04T02:17:23.812Z,16.93
2016-11-04T02:18:34.980Z,16.9
2016-11-04T02:19:45.606Z,16.95
2016-11-04T02:20:56.714Z,16.93
2016-11-04T02:22:07.383Z,16.86
2016-11-04T02:23:19.213Z,16.95
2016-11-04T02:24:29.871Z,16.86
2016-11-04T02:25:40.905Z,16.93
2016-11-04T02:26:51.585Z,16.86
2016-11-04T02:28:03.048Z,16.89
2016-11-04T02:29:14.149Z,16.89
2016-11-04T02:30:25.180Z,16.92
2016-11-04T02:31:36.643Z,16.9
2016-11-04T02:32:48.479Z,16.95
2016-11-04T02:33:59.924Z,16.83
2016-11-04T02:35:11.525Z,16.95
2016-11-04T02:36:23.328Z,16.88
2016-11-04T02:37:34.312Z,16.89
2016-11-04T02:38:45.344Z,16.93
2016-11-04T02:39:56.009Z,16.83
2016-11-04T02:41:07.602Z,16.85
2016-11-04T02:42:18.688Z,16.85
2016-11-04T02:43:29.687Z,16.78
2016-11-04T02:44:40.730Z,16.77
2016-11-04T02:45:51.751Z,16.83
2016-11-04T02:47:03.589Z,16.8
2016-11-04T02:48:18.059Z,16.93
2016-11-04T02:49:29.531Z,16.83
2016-11-04T02:50:40.168Z,16.9
2016-11-04T02:51:50.757Z,16.86
2016-11-04T02:53:01.806Z,16.95
2016-11-04T02:54:12.497Z,16.93
2016-11-04T02:55:24.730Z,16.98
2016-11-04T02:56:36.296Z,16.95
2016-11-04T02:57:46.907Z,16.96
2016-11-04T02:58:58.074Z,16.95
2016-11-04T03:00:09.292Z,16.96
2016-11-04T03:01:21.230Z,16.81
2016-11-04T03:02:31.878Z,16.89
2016-11-04T03:03:42.523Z,16.9
2016-11-04T03:04:53.984Z,16.96
2016-11-04T03:06:05.423Z,16.93
2016-11-04T03:07:16.518Z,16.9
2016-11-04T03:08:27.157Z,16.88
2016-11-04T03:09:37.820Z,16.92
2016-11-04T03:10:50.444Z,16.96
2016-11-04T03:12:01.918Z,16.95
2016-11-04T03:13:12.587Z,16.98
2016-11-04T03:14:23.629Z,16.89
2016-11-04T03:15:35.061Z,16.96
2016-11-04T03:16:46.475Z,16.92
2016-11-04T03:17:57.890Z,17.03
2016-11-04T03:19:09.332Z,16.96
2016-11-04T03:20:21.139Z,16.93
2016-11-04T03:21:32.636Z,16.92
2016-11-04T03:22:43.645Z,17
2016-11-04T03:23:54.387Z,16.96
2016-11-04T03:25:05.416Z,16.89
2016-11-04T03:26:16.962Z,16.99
2016-11-04T03:27:28.518Z,16.99
2016-11-04T03:28:39.198Z,16.93
2016-11-04T03:29:51.426Z,16.96
2016-11-04T03:31:02.899Z,16.9
2016-11-04T03:32:14.038Z,16.93
2016-11-04T03:33:24.701Z,17.03
2016-11-04T03:34:35.849Z,16.96
2016-11-04T03:35:47.373Z,16.92
2016-11-04T03:36:58.844Z,16.92
2016-11-04T03:38:10.004Z,16.9
2016-11-04T03:39:21.462Z,16.93
2016-11-04T03:40:32.658Z,16.93
2016-11-04T03:41:45.075Z,16.96
2016-11-04T03:42:56.102Z,16.96
2016-11-04T03:44:07.499Z,16.92
2016-11-04T03:45:18.954Z,16.9
2016-11-04T03:46:29.986Z,16.92
2016-11-04T03:47:41.438Z,16.96
2016-11-04T03:48:52.425Z,16.93
2016-11-04T03:50:04.766Z,16.99
2016-11-04T03:51:15.487Z,17.03
2016-11-04T03:52:27.350Z,16.93
2016-11-04T03:53:39.389Z,16.9
2016-11-04T03:54:50.847Z,16.89
2016-11-04T03:56:02.333Z,17.04
2016-11-04T03:57:13.391Z,16.99
2016-11-04T03:58:25.206Z,16.92
2016-11-04T03:59:37.475Z,16.92
2016-11-04T04:00:48.900Z,16.9
2016-11-04T04:01:59.986Z,16.92
2016-11-04T04:03:11.363Z,16.92
2016-11-04T04:04:21.997Z,16.89
2016-11-04T04:05:32.646Z,16.93
2016-11-04T04:06:43.662Z,16.95
2016-11-04T04:07:55.110Z,16.93
2016-11-04T04:09:05.775Z,17
2016-11-04T04:10:16.835Z,16.99
2016-11-04T04:11:27.848Z,16.99
2016-11-04T04:12:38.896Z,16.92
2016-11-04T04:13:49.980Z,16.93
2016-11-04T04:15:01.024Z,17.04
2016-11-04T04:16:12.496Z,17.04
2016-11-04T04:17:24.506Z,17
2016-11-04T04:18:36.319Z,16.95
2016-11-04T04:19:47.364Z,17
2016-11-04T04:20:59.190Z,17.03
2016-11-04T04:22:09.827Z,16.9
2016-11-04T04:23:21.781Z,16.95
2016-11-04T04:24:32.419Z,16.99
2016-11-04T04:25:44.194Z,16.96
2016-11-04T04:26:55.642Z,16.96
2016-11-04T04:28:06.698Z,16.9
2016-11-04T04:29:17.689Z,16.95
2016-11-04T04:30:28.378Z,16.92
2016-11-04T04:31:39.050Z,17.06
2016-11-04T04:32:50.098Z,17.06
2016-11-04T04:34:00.762Z,17.06
2016-11-04T04:35:11.866Z,17.06
2016-11-04T04:36:23.302Z,17.07
2016-11-04T04:37:34.733Z,17.03
2016-11-04T04:38:45.762Z,17.06
2016-11-04T04:39:56.938Z,17.06
2016-11-04T04:41:07.700Z,17.08
2016-11-04T04:42:18.762Z,17.08
2016-11-04T04:43:29.779Z,17.11
2016-11-04T04:44:41.243Z,17.06
2016-11-04T04:45:52.919Z,16.99
2016-11-04T04:47:04.024Z,16.99
2016-11-04T04:48:15.111Z,17.1
2016-11-04T04:49:26.546Z,17.15
2016-11-04T04:50:37.555Z,17.04
2016-11-04T04:51:48.159Z,17.04
2016-11-04T04:52:59.234Z,16.98
2016-11-04T04:54:10.708Z,17.03
2016-11-04T04:55:21.721Z,16.99
2016-11-04T04:56:33.188Z,17.03
2016-11-04T04:57:44.270Z,17.07
2016-11-04T04:58:55.740Z,17.08
2016-11-04T05:00:07.187Z,17.1
2016-11-04T05:01:18.257Z,17.1
2016-11-04T05:02:29.666Z,17.13
2016-11-04T05:03:41.114Z,17.14
2016-11-04T05:04:52.229Z,17.07
2016-11-04T05:06:03.747Z,17.14
2016-11-04T05:07:15.207Z,17.15
2016-11-04T05:08:26.622Z,17.11
2016-11-04T05:09:37.675Z,17.13
2016-11-04T05:10:49.242Z,17.13
2016-11-04T05:12:00.279Z,17.15
2016-11-04T05:13:10.932Z,17.13
2016-11-04T05:14:21.987Z,17.11
2016-11-04T05:15:33.467Z,17.15
2016-11-04T05:16:44.118Z,17.18
2016-11-04T05:17:55.552Z,17.17
2016-11-04T05:19:06.553Z,17.15
2016-11-04T05:20:17.594Z,17.22
2016-11-04T05:21:29.442Z,17.23
2016-11-04T05:22:40.490Z,17.2
2016-11-04T05:23:52.323Z,17.15
2016-11-04T05:25:03.335Z,17.17
2016-11-04T05:26:14.787Z,17.15
2016-11-04T05:27:25.418Z,17.15
2016-11-04T05:28:36.957Z,17.14
2016-11-04T05:29:48.375Z,17.17
2016-11-04T05:30:59.379Z,17.15
2016-11-04T05:32:10.438Z,17.11
2016-11-04T05:33:22.642Z,17.15
2016-11-04T05:34:33.774Z,17.14
2016-11-04T05:35:45.235Z,17.14
2016-11-04T05:36:55.900Z,17.15
2016-11-04T05:38:07.273Z,17.18
2016-11-04T05:39:18.379Z,17.22
2016-11-04T05:40:29.005Z,17.14
2016-11-04T05:41:40.877Z,17.14
2016-11-04T05:42:51.553Z,17.15
2016-11-04T05:44:03.442Z,17.15
2016-11-04T05:45:14.523Z,17.17
2016-11-04T05:46:25.613Z,17.18
2016-11-04T05:47:40.088Z,17.14
2016-11-04T05:48:50.742Z,17.13
2016-11-04T05:50:01.376Z,17.14
2016-11-04T05:51:15.904Z,17.06
2016-11-04T05:52:27.562Z,17.15
2016-11-04T05:53:39.002Z,17.17
2016-11-04T05:54:49.651Z,17.17
2016-11-04T05:56:01.086Z,17.13
2016-11-04T05:57:11.772Z,17.15
2016-11-04T05:58:22.778Z,17.17
2016-11-04T05:59:34.979Z,17.13
2016-11-04T06:00:46.021Z,17.14
2016-11-04T06:01:57.045Z,17.11
2016-11-04T06:03:08.066Z,17.17
2016-11-04T06:04:18.852Z,17.14
2016-11-04T06:05:29.876Z,17.1
2016-11-04T06:06:40.848Z,17.14
2016-11-04T06:07:51.561Z,17.17
2016-11-04T06:09:02.985Z,17.14
2016-11-04T06:10:14.957Z,17.18
2016-11-04T06:11:25.604Z,17.13
2016-11-04T06:12:36.270Z,17.14
2016-11-04T06:13:47.369Z,17.17
2016-11-04T06:14:58.445Z,17.17
2016-11-04T06:16:10.004Z,17.17
2016-11-04T06:17:21.861Z,17.13
2016-11-04T06:18:33.639Z,17.2
2016-11-04T06:19:44.671Z,17.22
2016-11-04T06:20:56.518Z,17.17
2016-11-04T06:22:07.225Z,17.28
2016-11-04T06:23:18.230Z,17.2
2016-11-04T06:24:29.283Z,17.26
2016-11-04T06:25:40.711Z,17.26
2016-11-04T06:26:52.147Z,17.26
2016-11-04T06:28:03.635Z,17.2
2016-11-04T06:29:15.098Z,17.23
2016-11-04T06:30:26.165Z,17.17
2016-11-04T06:31:37.986Z,17.22
2016-11-04T06:32:49.039Z,17.15
2016-11-04T06:34:00.960Z,17.2
2016-11-04T06:35:12.347Z,17.15
2016-11-04T06:36:23.402Z,17.17
2016-11-04T06:37:34.467Z,17.25
2016-11-04T06:38:45.532Z,17.18
2016-11-04T06:39:57.586Z,17.17
2016-11-04T06:41:09.061Z,17.23
2016-11-04T06:42:20.452Z,17.23
2016-11-04T06:43:31.061Z,17.26
2016-11-04T06:44:42.094Z,17.2
2016-11-04T06:45:53.140Z,17.22
2016-11-04T06:47:05.354Z,17.23
2016-11-04T06:48:16.464Z,17.18
2016-11-04T06:49:27.129Z,17.28
2016-11-04T06:50:38.237Z,17.25
2016-11-04T06:51:48.931Z,17.26
2016-11-04T06:53:01.174Z,17.26
2016-11-04T06:54:12.603Z,17.28
2016-11-04T06:55:23.623Z,17.28
2016-11-04T06:56:34.230Z,17.23
2016-11-04T06:57:45.364Z,17.26
2016-11-04T06:58:56.747Z,17.25
2016-11-04T07:00:08.217Z,17.22
2016-11-04T07:01:19.269Z,17.28
2016-11-04T07:02:30.365Z,17.26
2016-11-04T07:03:41.117Z,17.25
2016-11-04T07:04:51.817Z,17.25
2016-11-04T07:06:03.278Z,17.26
2016-11-04T07:07:13.946Z,17.22
2016-11-04T07:08:24.965Z,17.26
2016-11-04T07:09:36.414Z,17.25
2016-11-04T07:10:47.089Z,17.25
2016-11-04T07:11:58.517Z,17.25
2016-11-04T07:13:09.596Z,17.26
2016-11-04T07:14:21.016Z,17.29
2016-11-04T07:15:32.917Z,17.2
2016-11-04T07:16:44.422Z,17.22
2016-11-04T07:17:56.255Z,17.22
2016-11-04T07:19:07.329Z,17.25
2016-11-04T07:20:17.942Z,17.32
2016-11-04T07:21:28.703Z,17.29
2016-11-04T07:22:40.139Z,17.25
2016-11-04T07:23:51.969Z,17.32
2016-11-04T07:25:02.983Z,17.29
2016-11-04T07:26:13.678Z,17.28
2016-11-04T07:27:24.465Z,17.28
2016-11-04T07:29:38.546Z,17.32
2016-11-04T07:30:49.568Z,17.35
2016-11-04T07:32:01.048Z,17.3
2016-11-04T07:33:12.481Z,17.23
2016-11-04T07:34:24.413Z,17.25
2016-11-04T07:35:35.099Z,17.3
2016-11-04T07:36:46.461Z,17.29
2016-11-04T07:37:58.321Z,17.25
2016-11-04T07:39:09.830Z,17.26
2016-11-04T07:40:20.824Z,17.33
2016-11-04T07:41:31.862Z,17.38
2016-11-04T07:42:43.370Z,17.3
2016-11-04T07:43:54.944Z,17.35
2016-11-04T07:45:06.901Z,17.35
2016-11-04T07:46:17.905Z,17.32
2016-11-04T07:47:28.553Z,17.25
2016-11-04T07:48:39.639Z,17.2
2016-11-04T07:49:51.082Z,17.28
2016-11-04T07:51:02.321Z,17.28
2016-11-04T07:52:13.747Z,17.25
2016-11-04T07:53:25.177Z,17.18
2016-11-04T07:54:36.690Z,17.23
2016-11-04T07:55:48.576Z,17.26
2016-11-04T07:56:59.619Z,17.28
2016-11-04T07:58:10.641Z,17.22
2016-11-04T07:59:21.295Z,17.28
2016-11-04T08:00:32.358Z,17.23
2016-11-04T08:01:43.822Z,17.26
2016-11-04T08:02:55.230Z,17.25
2016-11-04T08:04:05.877Z,17.23
2016-11-04T08:05:16.564Z,17.23
2016-11-04T08:06:27.997Z,17.29
2016-11-04T08:07:39.046Z,17.23
2016-11-04T08:08:50.196Z,17.23
2016-11-04T08:10:02.185Z,17.23
2016-11-04T08:11:13.638Z,17.25
2016-11-04T08:12:24.652Z,17.25
2016-11-04T08:13:35.662Z,17.18
2016-11-04T08:14:46.407Z,17.25
2016-11-04T08:15:57.457Z,17.25
2016-11-04T08:17:08.154Z,17.25
2016-11-04T08:18:18.798Z,17.29
2016-11-04T08:19:30.676Z,17.26
2016-11-04T08:20:41.686Z,17.23
2016-11-04T08:21:52.734Z,17.23
2016-11-04T08:23:04.173Z,17.22
2016-11-04T08:24:15.217Z,17.32
2016-11-04T08:25:27.004Z,17.29
2016-11-04T08:26:38.071Z,17.29
2016-11-04T08:27:48.699Z,17.29
2016-11-04T08:29:00.208Z,17.36
2016-11-04T08:30:11.291Z,17.32
2016-11-04T08:31:23.059Z,17.35
2016-11-04T08:32:35.061Z,17.3
2016-11-04T08:33:46.122Z,17.3
2016-11-04T08:34:58.393Z,17.43
2016-11-04T08:36:09.042Z,17.43
2016-11-04T08:37:21.014Z,17.44
2016-11-04T08:38:32.590Z,17.41
2016-11-04T08:39:44.221Z,17.46
2016-11-04T08:40:55.412Z,17.38
2016-11-04T08:42:06.142Z,17.4
2016-11-04T08:43:17.720Z,17.43
2016-11-04T08:44:28.890Z,17.43
2016-11-04T08:45:40.323Z,17.44
2016-11-04T08:46:51.755Z,17.51
2016-11-04T08:48:02.851Z,17.5
2016-11-04T08:49:13.483Z,17.5
2016-11-04T08:50:24.899Z,17.48
2016-11-04T08:51:36.467Z,17.4
2016-11-04T08:52:47.965Z,17.4
2016-11-04T08:53:58.998Z,17.43
2016-11-04T08:55:09.627Z,17.44
2016-11-04T08:56:20.366Z,17.47
2016-11-04T08:57:31.485Z,17.4
2016-11-04T08:58:42.105Z,17.36
2016-11-04T08:59:53.129Z,17.5
2016-11-04T09:01:04.617Z,17.5
2016-11-04T09:02:15.732Z,17.5
2016-11-04T09:03:26.806Z,17.48
2016-11-04T09:04:38.273Z,17.47
2016-11-04T09:05:50.078Z,17.43
2016-11-04T09:07:01.119Z,17.48
2016-11-04T09:08:13.603Z,17.5
2016-11-04T09:09:24.631Z,17.5
2016-11-04T09:10:36.100Z,17.43
2016-11-04T09:11:47.570Z,17.47
2016-11-04T09:12:58.624Z,17.44
2016-11-04T09:14:09.818Z,17.44
2016-11-04T09:15:21.278Z,17.48
2016-11-04T09:16:31.955Z,17.44
2016-11-04T09:17:42.622Z,17.38
2016-11-04T09:18:53.299Z,17.41
2016-11-04T09:20:04.358Z,17.51
2016-11-04T09:21:15.443Z,17.48
2016-11-04T09:22:26.902Z,17.55
2016-11-04T09:23:38.314Z,17.53
2016-11-04T09:24:49.825Z,17.55
2016-11-04T09:26:00.463Z,17.59
2016-11-04T09:27:11.492Z,17.59
2016-11-04T09:28:23.837Z,17.62
2016-11-04T09:29:35.269Z,17.64
2016-11-04T09:30:47.521Z,17.59
2016-11-04T09:31:58.673Z,17.67
2016-11-04T09:33:09.755Z,17.67
2016-11-04T09:34:21.212Z,17.7
2016-11-04T09:35:32.249Z,17.74
2016-11-04T09:36:42.899Z,17.74
2016-11-04T09:37:54.044Z,17.79
2016-11-04T09:39:05.089Z,17.81
2016-11-04T09:40:16.155Z,17.81
2016-11-04T09:41:26.853Z,17.74
2016-11-04T09:42:38.708Z,17.7
2016-11-04T09:43:50.553Z,17.64
2016-11-04T09:45:01.603Z,17.69
2016-11-04T09:46:12.648Z,17.7
2016-11-04T09:47:24.110Z,17.67
2016-11-04T09:48:35.557Z,17.63
2016-11-04T09:49:47.088Z,17.66
2016-11-04T09:51:00.771Z,17.7
2016-11-04T09:52:11.862Z,17.73
2016-11-04T09:53:23.309Z,17.78
2016-11-04T09:54:34.354Z,17.74
2016-11-04T09:55:45.804Z,17.76
2016-11-04T09:56:57.267Z,17.79
2016-11-04T09:58:08.688Z,17.78
2016-11-04T09:59:20.094Z,17.78
2016-11-04T10:01:48.001Z,17.85
2016-11-04T10:02:59.041Z,17.87
2016-11-04T10:04:10.498Z,17.79
2016-11-04T10:05:21.182Z,17.85
2016-11-04T10:06:33.010Z,17.84
2016-11-04T10:07:44.047Z,17.87
2016-11-04T10:08:55.105Z,17.76
2016-11-04T10:10:06.171Z,17.81
2016-11-04T10:11:17.876Z,17.81
2016-11-04T10:12:28.958Z,17.84
2016-11-04T10:13:39.791Z,17.82
2016-11-04T10:14:50.883Z,17.87
2016-11-04T10:16:02.405Z,17.79
2016-11-04T10:17:13.460Z,17.85
2016-11-04T10:18:24.218Z,17.94
2016-11-04T10:19:35.300Z,17.91
2016-11-04T10:20:46.011Z,17.95
2016-11-04T10:21:57.131Z,18.04
2016-11-04T10:23:07.856Z,17.91
2016-11-04T10:24:19.027Z,18.03
2016-11-04T10:25:30.180Z,17.95
2016-11-04T10:26:40.880Z,18.04
2016-11-04T10:27:51.611Z,17.99
2016-11-04T10:29:02.377Z,18.04
2016-11-04T10:30:13.493Z,17.95
2016-11-04T10:31:24.174Z,18
2016-11-04T10:32:35.298Z,17.97
2016-11-04T10:33:46.052Z,17.95
2016-11-04T10:34:57.118Z,17.99
2016-11-04T10:36:07.816Z,17.94
2016-11-04T10:37:19.285Z,18
2016-11-04T10:38:30.035Z,18.02
2016-11-04T10:39:41.127Z,18.06
2016-11-04T10:40:52.276Z,18.04
2016-11-04T10:42:03.299Z,18.07
2016-11-04T10:43:14.857Z,18.03
2016-11-04T10:44:25.595Z,18.1
2016-11-04T10:45:36.316Z,18.19
2016-11-04T10:46:47.023Z,18.09
2016-11-04T10:47:57.738Z,18.07
2016-11-04T10:49:08.595Z,18.04
2016-11-04T10:50:19.737Z,18.1
2016-11-04T10:51:31.221Z,17.92
2016-11-04T10:52:41.977Z,17.95
2016-11-04T10:53:52.643Z,18
2016-11-04T10:55:03.853Z,18.12
2016-11-04T10:56:14.936Z,18.04
2016-11-04T10:57:26.035Z,18.04
2016-11-04T10:58:37.159Z,18.03
2016-11-04T10:59:47.921Z,18.04
2016-11-04T11:00:58.747Z,18.13
2016-11-04T11:02:09.438Z,18.06
2016-11-04T11:03:20.168Z,18.12
2016-11-04T11:04:30.898Z,18.09
2016-11-04T11:05:42.412Z,18.18
2016-11-04T11:06:53.661Z,18.13
2016-11-04T11:08:05.159Z,18.17
2016-11-04T11:09:15.891Z,18.27
2016-11-04T11:10:27.139Z,18.27
2016-11-04T11:11:37.782Z,18.19
2016-11-04T11:12:48.637Z,18.24
2016-11-04T11:13:59.702Z,18.19
2016-11-04T11:15:10.807Z,18.21
2016-11-04T11:16:21.824Z,18.33
2016-11-04T11:17:32.877Z,18.24
2016-11-04T11:18:43.562Z,18.27
2016-11-04T11:19:54.604Z,18.33
2016-11-04T11:21:05.319Z,18.39
2016-11-04T11:22:16.443Z,18.4
2016-11-04T11:23:27.586Z,18.43
2016-11-04T11:24:38.318Z,18.49
2016-11-04T11:25:49.018Z,18.54
2016-11-04T11:27:00.170Z,18.57
2016-11-04T11:28:10.877Z,18.58
2016-11-04T11:29:21.931Z,18.67
2016-11-04T11:30:33.479Z,18.77
2016-11-04T11:31:44.692Z,18.77
2016-11-04T11:32:55.445Z,18.83
2016-11-04T11:34:06.178Z,18.84
2016-11-04T11:35:16.873Z,18.72
2016-11-04T11:36:28.369Z,18.82
2016-11-04T11:37:39.120Z,18.86
2016-11-04T11:38:49.852Z,18.87
2016-11-04T11:40:00.945Z,18.9
2016-11-04T11:41:11.717Z,18.95
2016-11-04T11:42:22.908Z,18.95
2016-11-04T11:43:33.980Z,19.02
2016-11-04T11:44:44.707Z,19.06
2016-11-04T11:45:55.445Z,19.1
2016-11-04T11:47:06.875Z,18.94
2016-11-04T11:48:17.665Z,18.83
2016-11-04T11:49:29.116Z,18.74
2016-11-04T11:50:39.819Z,18.72
2016-11-04T11:51:50.497Z,18.62
2016-11-04T11:53:01.593Z,18.59
2016-11-04T11:54:12.302Z,18.59
2016-11-04T11:55:23.045Z,18.55
2016-11-04T11:56:34.179Z,18.57
2016-11-04T11:57:44.919Z,18.65
2016-11-04T11:58:55.655Z,18.61
2016-11-04T12:00:06.903Z,18.7
2016-11-04T12:01:18.415Z,18.59
2016-11-04T12:02:30.337Z,18.57
2016-11-04T12:03:42.174Z,18.44
2016-11-04T12:04:52.930Z,18.42
2016-11-04T12:06:03.625Z,18.57
2016-11-04T12:07:14.402Z,18.59
2016-11-04T12:08:25.545Z,18.57
2016-11-04T12:09:36.666Z,18.76
2016-11-04T12:10:48.676Z,18.77
2016-11-04T12:11:59.884Z,18.83
2016-11-04T12:13:11.052Z,18.87
2016-11-04T12:14:22.097Z,18.76
2016-11-04T12:15:32.785Z,18.86
2016-11-04T12:16:43.461Z,18.9
2016-11-04T12:17:54.680Z,18.92
2016-11-04T12:19:05.739Z,19.02
2016-11-04T12:20:16.476Z,19.11
2016-11-04T12:21:27.652Z,19.05
2016-11-04T12:22:38.729Z,19.17
2016-11-04T12:23:49.516Z,19.11
2016-11-04T12:25:00.597Z,19.17
2016-11-04T12:26:11.336Z,19.21
2016-11-04T12:27:22.575Z,19.25
2016-11-04T12:28:33.400Z,19.28
2016-11-04T12:29:44.643Z,19.31
2016-11-04T12:30:55.702Z,19.21
2016-11-04T12:32:06.425Z,19.14
2016-11-04T12:33:17.219Z,19.14
2016-11-04T12:34:27.923Z,19.21
2016-11-04T12:35:38.724Z,19.2
2016-11-04T12:36:49.461Z,19.06
2016-11-04T12:38:00.196Z,19.11
2016-11-04T12:39:10.903Z,19.15
2016-11-04T12:40:22.510Z,19.29
2016-11-04T12:41:33.393Z,19.31
2016-11-04T12:42:44.493Z,19.32
2016-11-04T12:43:55.613Z,19.29
2016-11-04T12:45:07.337Z,19.18
2016-11-04T12:46:18.871Z,19.18
2016-11-04T12:47:29.970Z,19.17
2016-11-04T12:48:41.046Z,18.87
2016-11-04T12:49:52.448Z,18.8
2016-11-04T12:51:03.221Z,18.77
2016-11-04T12:52:14.029Z,18.83
2016-11-04T12:53:25.179Z,18.79
2016-11-04T12:54:36.281Z,18.79
2016-11-04T12:55:48.209Z,18.7
2016-11-04T12:56:59.662Z,18.7
2016-11-04T12:58:10.824Z,18.76
2016-11-04T12:59:21.591Z,18.67
2016-11-04T13:00:32.784Z,18.7
2016-11-04T13:01:43.519Z,18.82
2016-11-04T13:02:54.257Z,18.92
2016-11-04T13:04:05.516Z,19.06
2016-11-04T13:05:16.279Z,19.28
2016-11-04T13:06:27.003Z,19.4
2016-11-04T13:07:38.652Z,19.48
2016-11-04T13:08:49.713Z,19.66
2016-11-04T13:10:00.441Z,19.8
2016-11-04T13:11:11.087Z,19.73
2016-11-04T13:12:21.843Z,19.69
2016-11-04T13:13:32.557Z,19.68
2016-11-04T13:14:43.654Z,19.6
2016-11-04T13:15:54.714Z,19.61
2016-11-04T13:18:44.264Z,19.68
2016-11-04T13:19:55.392Z,19.6
2016-11-04T13:21:06.501Z,19.43
2016-11-04T13:22:17.566Z,19.54
2016-11-04T13:23:28.334Z,19.58
2016-11-04T13:24:39.191Z,19.6
2016-11-04T13:25:49.858Z,19.43
2016-11-04T13:27:00.544Z,19.36
2016-11-04T13:28:11.248Z,19.33
2016-11-04T13:29:22.719Z,19.32
2016-11-04T13:30:34.181Z,19.42
2016-11-04T13:31:44.948Z,19.4
2016-11-04T13:32:55.602Z,19.43
2016-11-04T13:34:06.300Z,19.66
2016-11-04T13:35:17.425Z,19.88
2016-11-04T13:36:38.512Z,20.24
2016-11-04T13:37:49.768Z,20.53
2016-11-04T13:39:00.882Z,20.8
2016-11-04T13:40:12.648Z,21.06
2016-11-04T13:41:23.338Z,21.08
2016-11-04T13:42:34.181Z,21.24
2016-11-04T13:43:44.947Z,21.42
2016-11-04T13:44:56.177Z,21.79
2016-11-04T13:46:07.230Z,22.02
2016-11-04T13:47:17.995Z,22.14
2016-11-04T13:48:29.261Z,22.14
2016-11-04T13:49:39.935Z,22.34
2016-11-04T13:50:50.613Z,22.37
2016-11-04T13:52:01.762Z,22.35
2016-11-04T13:53:12.451Z,22.53
2016-11-04T13:54:23.191Z,22.65
2016-11-04T13:55:34.282Z,22.67
2016-11-04T13:56:45.395Z,22.67
2016-11-04T13:57:56.084Z,22.46
2016-11-04T13:59:06.817Z,22.39
2016-11-04T14:00:17.643Z,22.29
2016-11-04T14:01:29.290Z,22.31
2016-11-04T14:02:40.084Z,22.38
2016-11-04T14:03:50.828Z,22.39
2016-11-04T14:05:01.552Z,22.32
2016-11-04T14:06:12.665Z,21.98
2016-11-04T14:07:23.332Z,21.85
2016-11-04T14:08:34.037Z,21.72
2016-11-04T14:09:45.142Z,21.67
2016-11-04T14:10:56.206Z,21.72
2016-11-04T14:12:07.424Z,21.76
2016-11-04T14:13:18.911Z,21.74
2016-11-04T14:14:29.656Z,21.64
2016-11-04T14:15:41.195Z,21.67
2016-11-04T14:16:52.256Z,21.51
2016-11-04T14:18:03.379Z,21.29
2016-11-04T14:19:14.142Z,21.3
2016-11-04T14:20:25.347Z,21.3
2016-11-04T14:21:36.073Z,21.29
2016-11-04T14:22:47.134Z,21.13
2016-11-04T14:23:57.998Z,21.06
2016-11-04T14:25:08.727Z,20.93
2016-11-04T14:26:19.480Z,20.76
2016-11-04T14:27:30.578Z,20.65
2016-11-04T14:28:41.310Z,20.66
2016-11-04T14:29:52.091Z,20.68
2016-11-04T14:31:03.143Z,20.71
2016-11-04T14:32:14.204Z,20.69
2016-11-04T14:33:24.873Z,20.69
2016-11-04T14:34:36.436Z,20.66
2016-11-04T14:35:47.199Z,20.65
2016-11-04T14:36:58.238Z,20.69
2016-11-04T14:38:08.917Z,20.76
2016-11-04T14:39:19.626Z,20.84
2016-11-04T14:40:30.714Z,20.96
2016-11-04T14:41:41.501Z,21.02
2016-11-04T14:42:52.544Z,21.06
2016-11-04T14:44:03.239Z,20.98
2016-11-04T14:45:13.908Z,21.24
2016-11-04T14:46:24.609Z,21.3
2016-11-04T14:47:35.752Z,21.51
2016-11-04T14:48:47.264Z,21.53
2016-11-04T14:49:58.839Z,21.64
2016-11-04T14:51:09.865Z,21.88
2016-11-04T14:52:20.586Z,21.95
2016-11-04T14:53:31.260Z,21.99
2016-11-04T14:54:41.969Z,21.95
2016-11-04T14:55:52.685Z,21.97
2016-11-04T14:57:03.430Z,21.88
2016-11-04T14:58:14.162Z,21.76
2016-11-04T14:59:24.864Z,21.56
2016-11-04T15:00:35.840Z,21.53
2016-11-04T15:01:47.467Z,21.57
2016-11-04T15:02:58.215Z,21.45
2016-11-04T15:04:08.979Z,21.29
2016-11-04T15:05:19.786Z,21.04
2016-11-04T15:06:30.849Z,20.87
2016-11-04T15:07:41.968Z,20.8
2016-11-04T15:08:53.121Z,20.64
2016-11-04T15:10:03.823Z,20.59
2016-11-04T15:11:15.821Z,20.61
2016-11-04T15:12:26.508Z,20.47
2016-11-04T15:13:38.123Z,20.49
2016-11-04T15:14:48.766Z,20.46
2016-11-04T15:16:00.213Z,20.53
2016-11-04T15:17:10.867Z,20.54
2016-11-04T15:18:21.553Z,20.65
2016-11-04T15:19:32.611Z,20.71
2016-11-04T15:20:43.345Z,20.76
2016-11-04T15:21:54.846Z,20.96
2016-11-04T15:23:05.538Z,21.13
2016-11-04T15:24:16.637Z,21.39
2016-11-04T15:25:27.772Z,21.44